createdAt,value
2023-02-19T00:03:52.769Z,10.1
2023-02-19T00:05:55.899Z,10.3
2023-02-19T00:10:02.172Z,10.2
2023-02-19T00:16:14.766Z,10.2
2023-02-19T00:18:17.881Z,10.2
2023-02-19T00:21:24.195Z,10.2
2023-02-19T00:29:39.920Z,10.2
2023-02-19T00:31:43.173Z,10.2
2023-02-19T00:37:52.442Z,10.2
2023-02-19T00:39:55.581Z,10.2
2023-02-19T00:41:58.703Z,10.1
2023-02-19T00:44:05.043Z,10
2023-02-19T00:46:08.197Z,10.1
2023-02-19T00:48:12.872Z,10.2
2023-02-19T00:52:19.089Z,10
2023-02-19T00:54:22.219Z,10
2023-02-19T00:56:25.378Z,10.1
2023-02-19T00:58:31.675Z,10.1
2023-02-19T01:00:34.841Z,10.1
2023-02-19T01:02:37.950Z,10
2023-02-19T01:04:41.123Z,10
2023-02-19T01:06:44.222Z,10
2023-02-19T01:08:47.361Z,10
2023-02-19T01:10:50.486Z,10
2023-02-19T01:12:56.818Z,10
2023-02-19T01:14:59.936Z,10
2023-02-19T01:17:03.069Z,10
2023-02-19T01:18:06.234Z,10
2023-02-19T01:20:09.360Z,10
2023-02-19T01:22:12.484Z,9.9
2023-02-19T01:26:22.039Z,9.8
2023-02-19T01:28:25.017Z,9.9
2023-02-19T01:30:28.183Z,9.9
2023-02-19T01:44:53.220Z,9.9
2023-02-19T01:51:02.548Z,9.8
2023-02-19T01:53:05.678Z,9.8
2023-02-19T01:55:11.992Z,9.8
2023-02-19T01:57:15.127Z,9.8
2023-02-19T01:59:18.242Z,9.8
2023-02-19T02:01:21.323Z,9.8
2023-02-19T02:03:24.447Z,9.7
2023-02-19T02:05:27.552Z,9.9
2023-02-19T02:07:30.662Z,9.9
2023-02-19T02:13:43.209Z,9.8
2023-02-19T02:14:46.355Z,9.7
2023-02-19T02:16:49.486Z,9.7
2023-02-19T02:18:52.593Z,9.8
2023-02-19T02:20:55.699Z,9.8
2023-02-19T02:23:02.079Z,9.7
2023-02-19T02:25:05.153Z,9.7
2023-02-19T02:27:08.268Z,9.6
2023-02-19T02:29:11.389Z,9.8
2023-02-19T02:31:14.958Z,9.8
2023-02-19T02:33:17.603Z,9.8
2023-02-19T02:35:20.709Z,9.8
2023-02-19T02:37:27.034Z,9.8
2023-02-19T02:39:30.140Z,9.7
2023-02-19T02:41:33.294Z,9.8
2023-02-19T02:43:36.366Z,9.8
2023-02-19T02:45:39.558Z,9.8
2023-02-19T02:47:42.607Z,9.8
2023-02-19T02:51:52.010Z,9.7
2023-02-19T02:53:55.148Z,9.6
2023-02-19T02:58:01.338Z,9.7
2023-02-19T03:00:04.461Z,9.7
2023-02-19T03:08:20.111Z,9.8
2023-02-19T03:10:23.232Z,9.7
2023-02-19T03:12:52.435Z,9.7
2023-02-19T03:19:05.002Z,9.5
2023-02-19T03:21:08.644Z,9.6
2023-02-19T03:25:14.324Z,9.5
2023-02-19T03:29:20.566Z,9.7
2023-02-19T03:31:23.726Z,9.6
2023-02-19T03:33:30.005Z,9.5
2023-02-19T03:35:33.141Z,9.7
2023-02-19T03:37:36.229Z,9.6
2023-02-19T03:41:42.433Z,9.6
2023-02-19T03:43:45.561Z,9.7
2023-02-19T03:45:48.706Z,9.6
2023-02-19T04:00:13.713Z,9.6
2023-02-19T04:04:23.165Z,9.5
2023-02-19T04:06:26.234Z,9.4
2023-02-19T04:07:29.421Z,9.4
2023-02-19T04:09:32.546Z,9.4
2023-02-19T04:11:35.664Z,9.3
2023-02-19T04:13:38.772Z,9.4
2023-02-19T04:15:45.084Z,9.3
2023-02-19T04:17:48.232Z,9.3
2023-02-19T04:19:51.341Z,9.3
2023-02-19T04:21:54.441Z,9.3
2023-02-19T04:23:57.570Z,9.3
2023-02-19T04:28:03.808Z,9.3
2023-02-19T04:30:10.131Z,9.3
2023-02-19T04:32:13.230Z,9.3
2023-02-19T04:34:16.358Z,9.2
2023-02-19T04:36:19.471Z,9.2
2023-02-19T04:38:22.581Z,9.2
2023-02-19T04:42:28.805Z,9.3
2023-02-19T04:44:35.126Z,9.2
2023-02-19T04:48:41.395Z,9.2
2023-02-19T04:50:44.475Z,9.4
2023-02-19T04:52:47.569Z,9.2
2023-02-19T04:54:50.686Z,9.2
2023-02-19T04:56:53.822Z,9.2
2023-02-19T05:01:03.228Z,9.1
2023-02-19T05:03:06.346Z,9.1
2023-02-19T05:04:09.576Z,9.1
2023-02-19T05:06:12.622Z,9
2023-02-19T05:08:15.768Z,9
2023-02-19T05:12:25.190Z,9.1
2023-02-19T05:16:31.401Z,9.1
2023-02-19T05:24:43.863Z,9.2
2023-02-19T05:28:53.299Z,9.1
2023-02-19T05:35:02.675Z,9.1
2023-02-19T05:37:05.769Z,9
2023-02-19T05:39:08.888Z,9.1
2023-02-19T05:41:15.179Z,9
2023-02-19T05:43:18.339Z,9
2023-02-19T05:45:21.427Z,9.1
2023-02-19T05:47:24.550Z,9.1
2023-02-19T05:49:27.660Z,9
2023-02-19T05:51:30.757Z,8.9
2023-02-19T05:53:33.882Z,9
2023-02-19T05:57:43.756Z,9.1
2023-02-19T05:59:46.434Z,9.1
2023-02-19T06:02:52.758Z,9
2023-02-19T06:04:55.821Z,9
2023-02-19T06:13:11.434Z,8.9
2023-02-19T06:15:14.567Z,8.9
2023-02-19T06:17:17.668Z,8.9
2023-02-19T06:19:20.802Z,8.8
2023-02-19T06:21:23.915Z,8.8
2023-02-19T06:25:33.336Z,8.8
2023-02-19T06:31:42.782Z,8.8
2023-02-19T06:35:48.928Z,8.8
2023-02-19T06:37:55.247Z,8.7
2023-02-19T06:39:58.333Z,8.7
2023-02-19T06:42:01.461Z,8.7
2023-02-19T06:44:06.124Z,8.6
2023-02-19T06:46:09.179Z,8.7
2023-02-19T06:48:12.324Z,8.7
2023-02-19T06:52:21.762Z,8.6
2023-02-19T06:54:24.867Z,8.6
2023-02-19T06:58:52.191Z,8.8
2023-02-19T07:00:55.390Z,8.7
2023-02-19T07:05:04.724Z,8.8
2023-02-19T07:07:07.823Z,8.8
2023-02-19T07:09:10.937Z,8.7
2023-02-19T07:11:14.051Z,8.8
2023-02-19T07:13:17.147Z,8.7
2023-02-19T07:15:20.245Z,8.6
2023-02-19T07:17:23.372Z,8.7
2023-02-19T07:19:29.691Z,8.7
2023-02-19T07:21:32.795Z,8.7
2023-02-19T07:23:35.897Z,8.7
2023-02-19T07:25:39.533Z,8.6
2023-02-19T07:27:42.627Z,8.5
2023-02-19T07:33:55.185Z,8.5
2023-02-19T07:38:01.397Z,8.5
2023-02-19T07:40:04.529Z,8.5
2023-02-19T07:48:20.131Z,8.5
2023-02-19T07:50:23.241Z,8.4
2023-02-19T07:52:26.356Z,8.5
2023-02-19T07:55:32.645Z,8.5
2023-02-19T07:57:35.690Z,8.6
2023-02-19T07:59:38.800Z,8.6
2023-02-19T08:01:45.146Z,8.6
2023-02-19T08:03:50.381Z,8.6
2023-02-19T08:05:51.348Z,8.7
2023-02-19T08:07:54.461Z,8.6
2023-02-19T08:09:57.567Z,8.7
2023-02-19T08:12:00.692Z,8.7
2023-02-19T08:14:03.769Z,8.7
2023-02-19T08:16:18.276Z,8.7
2023-02-19T08:18:13.193Z,8.7
2023-02-19T08:20:16.305Z,8.7
2023-02-19T08:22:19.382Z,8.6
2023-02-19T08:24:22.500Z,8.6
2023-02-19T08:26:25.615Z,8.7
2023-02-19T08:30:35.171Z,8.7
2023-02-19T08:36:44.389Z,8.6
2023-02-19T08:42:53.712Z,8.8
2023-02-19T08:44:59.974Z,8.9
2023-02-19T08:47:03.097Z,8.8
2023-02-19T08:49:06.209Z,8.9
2023-02-19T08:50:09.365Z,9
2023-02-19T08:52:12.478Z,8.9
2023-02-19T08:54:15.594Z,9
2023-02-19T08:58:25.012Z,8.8
2023-02-19T09:04:34.360Z,8.7
2023-02-19T09:10:43.689Z,8.7
2023-02-19T09:12:49.988Z,8.6
2023-02-19T09:14:53.101Z,8.6
2023-02-19T09:16:56.223Z,8.7
2023-02-19T09:18:59.325Z,8.6
2023-02-19T09:21:02.425Z,8.7
2023-02-19T09:27:14.945Z,8.6
2023-02-19T09:33:24.248Z,8.2
2023-02-19T09:39:33.593Z,8.1
2023-02-19T09:43:43.031Z,8.1
2023-02-19T09:45:46.116Z,8.1
2023-02-19T09:46:49.297Z,8.1
2023-02-19T09:48:52.387Z,8.2
2023-02-19T09:50:55.493Z,8
2023-02-19T09:52:58.611Z,8.2
2023-02-19T09:55:04.917Z,8.1
2023-02-19T09:57:08.020Z,8
2023-02-19T10:01:14.531Z,7.8
2023-02-19T10:03:17.328Z,7.7
2023-02-19T10:05:20.469Z,7.8
2023-02-19T10:07:23.532Z,7.8
2023-02-19T10:09:29.836Z,7.8
2023-02-19T10:11:32.927Z,7.8
2023-02-19T10:13:36.022Z,7.9
2023-02-19T10:15:39.147Z,7.8
2023-02-19T10:17:42.220Z,7.8
2023-02-19T10:19:45.349Z,7.7
2023-02-19T10:21:48.433Z,7.8
2023-02-19T10:23:54.746Z,8
2023-02-19T10:25:57.842Z,8
2023-02-19T10:28:00.953Z,7.9
2023-02-19T10:30:04.146Z,8
2023-02-19T10:32:07.190Z,8
2023-02-19T10:34:10.250Z,7.9
2023-02-19T10:36:13.356Z,8
2023-02-19T10:38:19.664Z,7.8
2023-02-19T10:40:22.750Z,7.8
2023-02-19T10:42:25.869Z,7.8
2023-02-19T10:46:53.010Z,8.1
2023-02-19T10:51:02.420Z,8.1
2023-02-19T10:53:05.494Z,8.1
2023-02-19T10:55:08.600Z,8.1
2023-02-19T10:57:11.706Z,8.1
2023-02-19T10:59:14.829Z,8.1
2023-02-19T11:03:21.020Z,8.2
2023-02-19T11:05:27.357Z,8.1
2023-02-19T11:07:30.457Z,8
2023-02-19T11:09:33.553Z,8.2
2023-02-19T11:11:36.653Z,8.2
2023-02-19T11:13:39.756Z,8.3
2023-02-19T11:15:42.863Z,8.3
2023-02-19T11:17:45.952Z,8.5
2023-02-19T11:19:52.278Z,8.5
2023-02-19T11:21:55.383Z,8.6
2023-02-19T11:23:58.471Z,8.6
2023-02-19T11:26:01.592Z,8.6
2023-02-19T11:28:04.684Z,8.5
2023-02-19T11:30:07.808Z,8.6
2023-02-19T11:32:10.964Z,8.6
2023-02-19T11:34:17.235Z,8.6
2023-02-19T11:36:20.357Z,8.6
2023-02-19T11:38:23.478Z,8.8
2023-02-19T11:39:26.612Z,8.9
2023-02-19T11:41:29.752Z,8.8
2023-02-19T11:43:32.843Z,8.8
2023-02-19T11:47:42.278Z,8.8
2023-02-19T11:49:45.352Z,8.7
2023-02-19T11:51:52.290Z,8.7
2023-02-19T11:53:51.596Z,8.5
2023-02-19T12:06:13.619Z,8.3
2023-02-19T12:16:32.309Z,7.8
2023-02-19T12:18:35.355Z,7.9
2023-02-19T12:20:38.460Z,8
2023-02-19T12:22:41.596Z,7.9
2023-02-19T12:24:44.693Z,7.9
2023-02-19T12:26:47.809Z,8
2023-02-19T12:30:57.297Z,7.8
2023-02-19T12:42:17.453Z,7.7
2023-02-19T12:44:23.776Z,7.6
2023-02-19T12:46:26.939Z,7.8
2023-02-19T12:48:29.978Z,8
2023-02-19T12:50:33.086Z,8.1
2023-02-19T12:52:36.178Z,8.2
2023-02-19T12:58:48.694Z,8.4
2023-02-19T13:00:51.836Z,8.3
2023-02-19T13:04:58.006Z,8.4
2023-02-19T13:07:01.101Z,8.2
2023-02-19T13:09:06.620Z,8.2
2023-02-19T13:11:07.373Z,8.1
2023-02-19T13:13:13.656Z,8
2023-02-19T13:31:44.911Z,8.2
2023-02-19T13:32:47.946Z,8.3
2023-02-19T13:34:51.080Z,8.3
2023-02-19T13:36:54.151Z,8.3
2023-02-19T13:38:57.278Z,8.4
2023-02-19T13:41:03.631Z,8.3
2023-02-19T13:43:06.743Z,8.3
2023-02-19T13:45:09.866Z,8.6
2023-02-19T13:47:12.936Z,8.5
2023-02-19T13:49:16.045Z,8.6
2023-02-19T13:51:19.194Z,8.4
2023-02-19T13:53:22.300Z,8.3
2023-02-19T13:55:28.608Z,8.2
2023-02-19T13:57:31.706Z,8.4
2023-02-19T13:59:34.811Z,8.3
2023-02-19T14:01:37.988Z,8.3
2023-02-19T14:03:41.126Z,8.4
2023-02-19T14:05:44.136Z,8.2
2023-02-19T14:07:47.246Z,8.1
2023-02-19T14:09:53.579Z,8.1
2023-02-19T14:11:56.645Z,8.2
2023-02-19T14:13:59.766Z,8.2
2023-02-19T14:16:02.934Z,8.3
2023-02-19T14:18:05.957Z,8.4
2023-02-19T14:20:09.051Z,8.5
2023-02-19T14:22:12.170Z,8.3
2023-02-19T14:24:18.511Z,8.2
2023-02-19T14:26:21.596Z,8.2
2023-02-19T14:28:24.718Z,8.2
2023-02-19T14:33:02.865Z,8.3
2023-02-19T14:43:10.426Z,8.3
2023-02-19T14:49:19.712Z,8.4
2023-02-19T14:53:29.139Z,8.3
2023-02-19T14:55:32.241Z,8.3
2023-02-19T14:57:35.353Z,8.5
2023-02-19T14:59:38.463Z,8.4
2023-02-19T15:01:41.590Z,8.4
2023-02-19T15:03:44.672Z,8.3
2023-02-19T15:05:50.987Z,8.3
2023-02-19T15:07:54.085Z,8.4
2023-02-19T15:09:57.188Z,8.4
2023-02-19T15:12:00.312Z,8.3
2023-02-19T15:14:03.422Z,8.3
2023-02-19T15:16:06.548Z,8.3
2023-02-19T15:18:09.637Z,8.4
2023-02-19T15:20:15.937Z,8.4
2023-02-19T15:22:19.066Z,8.3
2023-02-19T15:24:22.179Z,8.4
2023-02-19T15:27:28.440Z,8.3
2023-02-19T15:29:31.575Z,8.4
2023-02-19T15:33:40.977Z,8.3
2023-02-19T15:39:50.297Z,8.4
2023-02-19T15:50:09.002Z,8.2
2023-02-19T15:52:12.100Z,8.3
2023-02-19T15:54:15.220Z,8.1
2023-02-19T15:56:18.338Z,8.2
2023-02-19T16:02:30.891Z,8.1
2023-02-19T16:08:40.175Z,8.1
2023-02-19T16:12:46.379Z,8.1
2023-02-19T16:14:49.490Z,8.1
2023-02-19T16:16:55.775Z,8
2023-02-19T16:18:58.887Z,8
2023-02-19T16:21:02.005Z,8
2023-02-19T16:22:05.279Z,8
2023-02-19T16:24:08.245Z,8
2023-02-19T16:26:11.326Z,8
2023-02-19T16:28:14.426Z,8
2023-02-19T16:30:20.772Z,8
2023-02-19T16:32:24.091Z,8
2023-02-19T16:34:26.927Z,8
2023-02-19T16:36:30.039Z,8
2023-02-19T16:38:33.145Z,8
2023-02-19T16:40:36.229Z,7.9
2023-02-19T16:42:39.322Z,7.9
2023-02-19T16:44:45.654Z,7.7
2023-02-19T16:46:48.735Z,7.8
2023-02-19T16:48:51.857Z,7.8
2023-02-19T16:50:54.949Z,7.9
2023-02-19T16:52:58.111Z,7.8
2023-02-19T16:55:01.160Z,7.9
2023-02-19T16:57:04.263Z,7.9
2023-02-19T16:59:10.560Z,7.8
2023-02-19T17:11:29.162Z,7.1
2023-02-19T17:15:38.577Z,7.5
2023-02-19T17:18:44.847Z,7.6
2023-02-19T17:20:47.947Z,7.5
2023-02-19T17:22:51.088Z,7.5
2023-02-19T17:24:54.145Z,7.4
2023-02-19T17:27:00.502Z,7.4
2023-02-19T17:29:03.576Z,7.4
2023-02-19T17:31:06.699Z,7.4
2023-02-19T17:33:09.799Z,7.5
2023-02-19T17:35:12.899Z,7.5
2023-02-19T17:37:16.021Z,7.4
2023-02-19T17:39:19.168Z,7.3
2023-02-19T17:41:25.425Z,7.3
2023-02-19T17:43:28.522Z,7.3
2023-02-19T17:45:31.637Z,7.4
2023-02-19T17:47:34.738Z,7.3
2023-02-19T17:49:37.863Z,7.3
2023-02-19T17:51:40.972Z,7.3
2023-02-19T17:53:44.081Z,7.2
2023-02-19T17:55:50.408Z,7.3
2023-02-19T18:01:59.701Z,7.3
2023-02-19T18:08:09.025Z,7.2
2023-02-19T18:16:46.083Z,7.1
2023-02-19T18:18:48.664Z,7.1
2023-02-19T18:20:51.744Z,7.1
2023-02-19T18:22:58.081Z,7.1
2023-02-19T18:25:01.171Z,7
2023-02-19T18:27:04.275Z,7.1
2023-02-19T18:29:07.383Z,7.2
2023-02-19T18:31:10.927Z,7.1
2023-02-19T18:33:15.195Z,7.1
2023-02-19T18:35:18.238Z,7.1
2023-02-19T18:37:24.546Z,7
2023-02-19T18:39:27.666Z,7
2023-02-19T18:41:30.757Z,7
2023-02-19T18:43:33.854Z,7.1
2023-02-19T18:45:36.963Z,7
2023-02-19T18:47:40.070Z,7.1
2023-02-19T18:49:43.155Z,7.1
2023-02-19T18:51:49.485Z,6.9
2023-02-19T18:55:55.665Z,7
2023-02-19T19:04:08.056Z,7
2023-02-19T19:06:14.241Z,6.9
2023-02-19T19:10:20.420Z,6.9
2023-02-19T19:13:26.672Z,7
2023-02-19T19:15:29.786Z,6.9
2023-02-19T19:17:32.868Z,7
2023-02-19T19:23:45.339Z,6.9
2023-02-19T19:25:48.449Z,6.9
2023-02-19T19:27:51.538Z,6.8
2023-02-19T19:31:57.770Z,7
2023-02-19T19:34:04.020Z,6.8
2023-02-19T19:36:07.087Z,6.7
2023-02-19T19:38:10.183Z,6.8
2023-02-19T19:40:13.296Z,6.7
2023-02-19T19:42:16.369Z,6.7
2023-02-19T19:44:19.415Z,6.6
2023-02-19T19:48:28.803Z,6.4
2023-02-19T19:52:34.972Z,6.4
2023-02-19T19:54:38.069Z,6.4
2023-02-19T19:56:41.133Z,6.3
2023-02-19T19:58:44.250Z,6.3
2023-02-19T20:00:47.315Z,6.3
2023-02-19T20:02:53.687Z,6.1
2023-02-19T20:04:56.692Z,6.2
2023-02-19T20:06:59.751Z,6.1
2023-02-19T20:08:02.901Z,6.1
2023-02-19T20:10:05.957Z,6.1
2023-02-19T20:12:09.030Z,6.1
2023-02-19T20:14:12.110Z,5.9
2023-02-19T20:16:18.530Z,5.9
2023-02-19T20:18:21.478Z,5.9
2023-02-19T20:20:24.528Z,5.8
2023-02-19T20:22:27.598Z,5.9
2023-02-19T20:24:30.694Z,5.9
2023-02-19T20:26:33.742Z,5.8
2023-02-19T20:28:36.810Z,5.8
2023-02-19T20:30:43.137Z,5.7
2023-02-19T20:34:49.223Z,5.7
2023-02-19T20:36:52.248Z,5.7
2023-02-19T20:40:58.375Z,5.6
2023-02-19T20:43:01.452Z,5.7
2023-02-19T20:45:07.721Z,5.5
2023-02-19T20:47:10.782Z,5.6
2023-02-19T20:49:13.873Z,5.6
2023-02-19T20:51:16.907Z,5.5
2023-02-19T20:53:19.982Z,5.4
2023-02-19T20:55:23.015Z,5.5
2023-02-19T20:57:26.086Z,5.5
2023-02-19T20:59:32.341Z,5.4
2023-02-19T21:01:35.463Z,5.4
2023-02-19T21:03:38.454Z,5.4
2023-02-19T21:04:41.578Z,5.4
2023-02-19T21:06:44.638Z,5.4
2023-02-19T21:08:47.697Z,5.4
2023-02-19T21:10:50.750Z,5.4
2023-02-19T21:12:56.992Z,5.3
2023-02-19T21:15:00.161Z,5.3
2023-02-19T21:17:03.088Z,5.3
2023-02-19T21:19:06.133Z,5.4
2023-02-19T21:21:09.189Z,5.3
2023-02-19T21:23:12.229Z,5.3
2023-02-19T21:25:15.292Z,5.2
2023-02-19T21:27:21.547Z,5.3
2023-02-19T21:29:24.611Z,5.3
2023-02-19T21:31:27.755Z,5.2
2023-02-19T21:33:30.706Z,5.2
2023-02-19T21:39:39.830Z,5.3
2023-02-19T21:43:49.162Z,5.2
2023-02-19T21:45:52.276Z,5.3
2023-02-19T21:47:55.275Z,5.4
2023-02-19T21:49:58.331Z,5.3
2023-02-19T22:02:34.948Z,5.3
2023-02-19T22:04:37.943Z,5.2
2023-02-19T22:06:41.011Z,5.3
2023-02-19T22:08:47.241Z,5.3
2023-02-19T22:10:50.293Z,5.3
2023-02-19T22:12:53.357Z,5.3
2023-02-19T22:23:11.778Z,5.2
2023-02-19T22:25:14.846Z,5.1
2023-02-19T22:27:17.870Z,5.1
2023-02-19T22:29:20.937Z,5.1
2023-02-19T22:35:30.068Z,5.1
2023-02-19T22:37:36.295Z,5.1
2023-02-19T22:39:39.372Z,5.2
2023-02-19T22:41:42.409Z,5.2
2023-02-19T22:43:45.435Z,5.2
2023-02-19T22:45:48.517Z,5.1
2023-02-19T22:47:51.499Z,5.2
2023-02-19T22:49:54.574Z,5.2
2023-02-19T22:52:00.816Z,5.2
2023-02-19T22:54:03.864Z,5.2
2023-02-19T22:56:06.923Z,5.2
2023-02-19T22:57:10.038Z,5.3
2023-02-19T22:59:13.068Z,5.3
2023-02-19T23:01:16.194Z,5.4
2023-02-19T23:03:19.168Z,5.3
2023-02-19T23:07:28.460Z,5.3
2023-02-19T23:11:34.540Z,5.4
2023-02-19T23:13:37.586Z,5.5
2023-02-19T23:17:43.647Z,5.6
2023-02-19T23:23:56.046Z,5.6
2023-02-19T23:25:59.087Z,5.7
2023-02-19T23:30:05.199Z,5.7
2023-02-19T23:34:14.483Z,5.7
2023-02-19T23:36:17.575Z,5.7
2023-02-19T23:38:20.591Z,5.8
2023-02-19T23:40:23.635Z,5.9
2023-02-19T23:42:26.699Z,5.8
2023-02-19T23:44:29.749Z,5.8
2023-02-19T23:46:32.842Z,5.7
2023-02-19T23:48:39.089Z,5.7
2023-02-19T23:50:42.159Z,5.8
2023-02-19T23:52:45.208Z,5.8
2023-02-19T23:53:48.345Z,5.8
2023-02-19T23:55:51.408Z,5.8
2023-02-19T23:57:54.456Z,5.8
